createdAt,value
2018-03-09T00:01:02.567Z,5.70
2018-03-09T00:03:33.012Z,5.80
2018-03-09T00:06:03.298Z,5.80
2018-03-09T00:08:33.774Z,5.70
2018-03-09T00:11:04.276Z,5.80
2018-03-09T00:13:34.599Z,5.80
2018-03-09T00:16:04.882Z,5.80
2018-03-09T00:18:35.078Z,5.80
2018-03-09T00:21:06.100Z,5.80
2018-03-09T00:23:36.438Z,5.80
2018-03-09T00:26:06.990Z,5.80
2018-03-09T00:28:37.929Z,5.90
2018-03-09T00:31:12.253Z,5.80
2018-03-09T00:33:44.464Z,5.70
2018-03-09T00:36:14.946Z,5.70
2018-03-09T00:38:45.965Z,5.70
2018-03-09T00:41:16.202Z,5.70
2018-03-09T00:43:47.125Z,5.60
2018-03-09T00:46:17.614Z,5.60
2018-03-09T00:48:49.595Z,5.80
2018-03-09T00:51:20.164Z,5.80
2018-03-09T00:53:50.533Z,5.80
2018-03-09T00:56:21.576Z,5.90
2018-03-09T00:58:52.525Z,6.00
2018-03-09T01:01:23.436Z,6.20
2018-03-09T01:03:54.370Z,6.30
2018-03-09T01:06:24.924Z,6.30
2018-03-09T01:08:55.338Z,6.40
2018-03-09T01:11:26.142Z,6.40
2018-03-09T01:13:56.504Z,6.40
2018-03-09T01:16:27.797Z,6.30
2018-03-09T01:18:58.415Z,6.20
2018-03-09T01:21:29.302Z,6.10
2018-03-09T01:24:00.261Z,6.10
2018-03-09T01:26:30.808Z,6.10
2018-03-09T01:29:01.375Z,6.10
2018-03-09T01:31:32.283Z,6.10
2018-03-09T01:34:02.882Z,6.00
2018-03-09T01:36:33.640Z,6.00
2018-03-09T01:39:04.614Z,6.00
2018-03-09T01:41:36.543Z,6.10
2018-03-09T01:44:06.852Z,6.10
2018-03-09T01:46:37.584Z,6.00
2018-03-09T01:49:09.270Z,6.10
2018-03-09T01:51:39.878Z,6.10
2018-03-09T01:54:10.801Z,6.20
2018-03-09T01:56:41.664Z,6.20
2018-03-09T01:59:15.368Z,6.00
2018-03-09T02:01:46.828Z,5.90
2018-03-09T02:04:18.599Z,6.00
2018-03-09T02:06:49.511Z,5.90
2018-03-09T02:09:20.433Z,5.90
2018-03-09T02:11:52.787Z,6.00
2018-03-09T02:14:23.442Z,6.00
2018-03-09T02:16:54.258Z,5.90
2018-03-09T02:19:24.835Z,6.00
2018-03-09T02:21:57.026Z,5.90
2018-03-09T02:24:30.144Z,5.90
2018-03-09T02:27:01.412Z,5.90
2018-03-09T02:29:35.741Z,5.90
2018-03-09T02:32:06.702Z,6.00
2018-03-09T02:34:39.449Z,5.90
2018-03-09T02:37:11.273Z,5.90
2018-03-09T02:39:42.969Z,5.80
2018-03-09T02:42:13.696Z,6.00
2018-03-09T02:44:44.652Z,6.10
2018-03-09T02:47:16.019Z,6.20
2018-03-09T02:49:46.753Z,6.10
2018-03-09T02:52:17.760Z,6.10
2018-03-09T02:54:48.803Z,6.10
2018-03-09T02:57:21.986Z,6.00
2018-03-09T02:59:52.560Z,5.80
2018-03-09T03:02:23.356Z,5.80
2018-03-09T03:04:54.390Z,5.80
2018-03-09T03:07:24.920Z,5.90
2018-03-09T03:09:55.751Z,6.00
2018-03-09T03:12:26.572Z,6.00
2018-03-09T03:14:57.552Z,6.10
2018-03-09T03:17:28.621Z,6.00
2018-03-09T03:19:59.512Z,5.90
2018-03-09T03:22:30.242Z,6.00
2018-03-09T03:25:00.870Z,6.10
2018-03-09T03:27:32.071Z,6.10
2018-03-09T03:30:04.104Z,6.10
2018-03-09T03:32:35.271Z,6.10
2018-03-09T03:35:06.143Z,6.10
2018-03-09T03:37:36.694Z,6.00
2018-03-09T03:40:07.256Z,6.00
2018-03-09T03:42:39.129Z,6.10
2018-03-09T03:45:10.186Z,6.10
2018-03-09T03:47:40.996Z,6.10
2018-03-09T03:50:11.506Z,6.10
2018-03-09T03:52:42.052Z,6.10
2018-03-09T03:55:12.773Z,6.00
2018-03-09T03:57:43.761Z,6.00
2018-03-09T04:00:14.787Z,6.00
2018-03-09T04:02:46.819Z,5.90
2018-03-09T04:05:21.545Z,5.80
2018-03-09T04:07:53.274Z,6.00
2018-03-09T04:10:23.922Z,6.00
2018-03-09T04:12:54.116Z,5.90
2018-03-09T04:15:24.665Z,6.00
2018-03-09T04:17:55.515Z,6.00
2018-03-09T04:20:26.683Z,6.10
2018-03-09T04:22:57.625Z,6.00
2018-03-09T04:25:28.391Z,5.90
2018-03-09T04:27:59.775Z,5.90
2018-03-09T04:30:30.936Z,5.90
2018-03-09T04:33:03.066Z,6.10
2018-03-09T04:35:34.154Z,6.10
2018-03-09T04:38:05.438Z,6.10
2018-03-09T04:40:35.531Z,6.10
2018-03-09T04:43:05.921Z,6.10
2018-03-09T04:45:38.198Z,6.10
2018-03-09T04:48:09.131Z,6.10
2018-03-09T04:50:40.255Z,5.90
2018-03-09T04:53:10.400Z,5.90
2018-03-09T04:55:41.297Z,6.00
2018-03-09T04:58:12.482Z,6.00
2018-03-09T05:00:42.643Z,5.80
2018-03-09T05:03:13.075Z,5.80
2018-03-09T05:05:44.260Z,5.90
2018-03-09T05:08:15.135Z,6.00
2018-03-09T05:10:46.712Z,6.20
2018-03-09T05:13:17.195Z,6.20
2018-03-09T05:15:47.861Z,6.20
2018-03-09T05:18:19.294Z,6.20
2018-03-09T05:20:50.004Z,6.10
2018-03-09T05:23:20.969Z,6.10
2018-03-09T05:25:52.396Z,5.90
2018-03-09T05:28:23.856Z,5.90
2018-03-09T05:30:54.725Z,5.90
2018-03-09T05:33:25.422Z,5.90
2018-03-09T05:35:56.253Z,5.90
2018-03-09T05:38:28.423Z,6.00
2018-03-09T05:40:58.555Z,6.00
2018-03-09T05:43:29.114Z,6.00
2018-03-09T05:46:05.051Z,5.80
2018-03-09T05:48:37.390Z,5.80
2018-03-09T05:51:09.872Z,5.90
2018-03-09T05:53:40.405Z,6.00
2018-03-09T05:56:13.416Z,6.00
2018-03-09T05:58:45.338Z,6.10
2018-03-09T06:01:16.456Z,6.10
2018-03-09T06:03:47.350Z,6.20
2018-03-09T06:06:18.008Z,6.10
2018-03-09T06:08:49.066Z,5.90
2018-03-09T06:11:37.378Z,6.00
2018-03-09T06:14:11.805Z,6.00
2018-03-09T06:16:46.303Z,6.10
2018-03-09T06:19:18.480Z,6.20
2018-03-09T06:21:49.575Z,6.20
2018-03-09T06:24:22.168Z,6.30
2018-03-09T06:27:03.193Z,6.40
2018-03-09T06:29:53.824Z,6.60
2018-03-09T06:32:44.630Z,6.60
2018-03-09T06:35:17.906Z,6.40
2018-03-09T06:37:48.815Z,6.40
2018-03-09T06:40:22.652Z,6.60
2018-03-09T06:42:53.819Z,6.50
2018-03-09T06:45:27.902Z,6.50
2018-03-09T06:47:59.339Z,6.50
2018-03-09T06:50:31.131Z,6.50
2018-03-09T06:53:02.594Z,6.70
2018-03-09T06:55:34.079Z,6.80
2018-03-09T06:58:10.831Z,6.70
2018-03-09T07:00:42.934Z,6.70
2018-03-09T07:03:34.059Z,6.50
2018-03-09T07:06:05.216Z,6.50
2018-03-09T07:08:41.031Z,6.70
2018-03-09T07:11:12.092Z,6.80
2018-03-09T07:13:48.894Z,6.80
2018-03-09T07:16:19.436Z,6.90
2018-03-09T07:18:51.063Z,6.70
2018-03-09T07:21:22.380Z,6.80
2018-03-09T07:23:57.944Z,6.70
2018-03-09T07:26:32.399Z,6.90
2018-03-09T07:29:04.448Z,6.90
2018-03-09T07:31:36.790Z,6.80
2018-03-09T07:34:09.227Z,6.70
2018-03-09T07:36:40.957Z,6.70
2018-03-09T07:39:11.534Z,6.70
2018-03-09T07:41:42.886Z,6.90
2018-03-09T07:44:13.232Z,7.00
2018-03-09T07:53:20.920Z,7.30
2018-03-09T07:55:51.308Z,7.20
2018-03-09T07:58:22.067Z,7.20
2018-03-09T08:00:52.272Z,6.90
2018-03-09T08:03:22.782Z,7.10
2018-03-09T08:05:53.632Z,7.10
2018-03-09T08:08:25.002Z,7.30
2018-03-09T08:10:55.181Z,7.30
2018-03-09T08:13:26.324Z,7.40
2018-03-09T08:15:57.237Z,7.40
2018-03-09T08:18:28.733Z,7.40
2018-03-09T08:21:07.552Z,7.50
2018-03-09T08:23:38.198Z,7.50
2018-03-09T08:26:10.097Z,7.70
2018-03-09T08:28:40.814Z,7.80
2018-03-09T08:31:12.528Z,7.80
2018-03-09T08:34:33.120Z,8.00
2018-03-09T08:37:03.695Z,8.00
2018-03-09T08:39:34.776Z,8.20
2018-03-09T08:42:11.753Z,8.70
2018-03-09T08:44:43.820Z,8.90
2018-03-09T08:48:00.257Z,8.80
2018-03-09T08:50:31.498Z,8.70
2018-03-09T08:53:02.109Z,9.00
2018-03-09T08:55:41.296Z,9.00
2018-03-09T08:58:12.018Z,9.50
2018-03-09T09:00:43.990Z,9.90
2018-03-09T09:03:14.999Z,10.20
2018-03-09T09:05:46.584Z,10.10
2018-03-09T09:08:17.629Z,10.00
2018-03-09T09:10:49.560Z,10.20
2018-03-09T09:13:22.725Z,10.30
2018-03-09T09:16:19.122Z,10.50
2018-03-09T09:18:50.247Z,10.50
2018-03-09T09:21:21.697Z,9.90
2018-03-09T09:23:57.099Z,10.30
2018-03-09T09:26:28.069Z,10.20
2018-03-09T09:28:59.283Z,10.60
2018-03-09T09:31:31.320Z,10.80
2018-03-09T09:34:02.406Z,10.80
2018-03-09T09:36:35.759Z,10.60
2018-03-09T09:39:06.703Z,10.80
2018-03-09T09:41:40.784Z,10.90
2018-03-09T09:44:11.682Z,10.90
2018-03-09T09:46:42.410Z,10.70
2018-03-09T09:49:13.249Z,10.40
2018-03-09T09:51:43.840Z,10.80
2018-03-09T09:54:15.753Z,11.50
2018-03-09T10:00:18.522Z,11.70
2018-03-09T10:02:49.737Z,12.10
2018-03-09T10:08:16.172Z,12.50
2018-03-09T10:10:47.841Z,12.10
2018-03-09T10:13:18.979Z,12.20
2018-03-09T10:15:49.753Z,12.20
2018-03-09T10:18:22.037Z,12.50
2018-03-09T10:20:54.913Z,12.80
2018-03-09T10:23:27.968Z,12.60
2018-03-09T10:26:15.558Z,12.70
2018-03-09T10:28:54.654Z,12.70
2018-03-09T10:31:26.160Z,12.60
2018-03-09T10:34:02.247Z,12.20
2018-03-09T10:36:33.879Z,12.20
2018-03-09T10:39:07.486Z,12.20
2018-03-09T10:41:42.213Z,12.20
2018-03-09T10:44:16.843Z,12.20
2018-03-09T10:46:47.687Z,12.30
2018-03-09T10:49:21.977Z,12.50
2018-03-09T10:51:59.045Z,12.50
2018-03-09T10:54:35.462Z,12.70
2018-03-09T10:57:44.445Z,13.70
2018-03-09T11:01:09.086Z,14.10
2018-03-09T11:03:41.086Z,14.00
2018-03-09T11:06:29.303Z,13.90
2018-03-09T11:09:00.920Z,14.00
2018-03-09T11:11:31.878Z,14.40
2018-03-09T11:14:03.992Z,14.60
2018-03-09T11:16:34.762Z,14.60
2018-03-09T11:19:04.866Z,14.60
2018-03-09T11:21:45.089Z,14.50
2018-03-09T11:24:19.808Z,14.30
2018-03-09T11:26:51.161Z,13.90
2018-03-09T11:29:21.381Z,13.90
2018-03-09T11:31:52.078Z,14.30
2018-03-09T11:34:23.399Z,14.60
2018-03-09T11:36:54.396Z,14.60
2018-03-09T11:39:25.328Z,14.40
2018-03-09T11:41:56.461Z,14.50
2018-03-09T11:44:30.692Z,14.00
2018-03-09T11:47:09.439Z,15.00
2018-03-09T11:49:48.562Z,15.00
2018-03-09T11:52:44.873Z,15.00
2018-03-09T11:55:26.007Z,14.40
2018-03-09T11:58:05.307Z,14.30
2018-03-09T12:00:46.366Z,13.70
2018-03-09T12:03:17.298Z,14.20
2018-03-09T12:05:48.505Z,14.80
2018-03-09T12:08:19.769Z,14.60
2018-03-09T12:10:51.527Z,14.40
2018-03-09T12:13:33.537Z,14.20
2018-03-09T12:16:57.485Z,14.30
2018-03-09T12:19:30.210Z,14.30
2018-03-09T12:22:00.687Z,14.00
2018-03-09T12:24:31.501Z,14.00
2018-03-09T12:27:03.482Z,14.40
2018-03-09T12:29:36.196Z,14.30
2018-03-09T12:32:07.774Z,14.20
2018-03-09T12:34:39.911Z,13.80
2018-03-09T12:37:13.258Z,13.90
2018-03-09T12:39:55.901Z,14.00
2018-03-09T12:42:28.674Z,14.10
2018-03-09T12:45:00.686Z,14.10
2018-03-09T12:52:02.020Z,14.00
2018-03-09T12:54:37.212Z,14.00
2018-03-09T12:57:24.437Z,14.20
2018-03-09T12:59:56.350Z,14.40
2018-03-09T13:02:31.087Z,14.40
2018-03-09T13:05:01.914Z,14.40
2018-03-09T13:07:40.752Z,14.00
2018-03-09T13:10:16.336Z,14.00
2018-03-09T13:12:54.806Z,14.00
2018-03-09T13:15:30.421Z,13.90
2018-03-09T13:20:45.179Z,13.90
2018-03-09T13:23:15.533Z,13.60
2018-03-09T13:25:59.523Z,14.20
2018-03-09T13:28:53.203Z,14.20
2018-03-09T13:31:25.447Z,14.60
2018-03-09T13:33:56.882Z,14.30
2018-03-09T13:36:27.201Z,14.10
2018-03-09T13:38:58.587Z,14.40
2018-03-09T13:41:30.298Z,14.60
2018-03-09T13:44:01.490Z,14.40
2018-03-09T13:46:36.025Z,14.10
2018-03-09T13:49:20.971Z,14.20
2018-03-09T13:51:58.950Z,14.20
2018-03-09T13:54:30.255Z,14.50
2018-03-09T13:57:03.869Z,14.60
2018-03-09T13:59:35.274Z,14.10
2018-03-09T14:02:06.318Z,14.00
2018-03-09T14:04:37.427Z,14.50
2018-03-09T14:07:09.168Z,13.90
2018-03-09T14:09:42.892Z,13.90
2018-03-09T14:12:14.960Z,14.00
2018-03-09T14:14:45.827Z,14.00
2018-03-09T14:17:20.343Z,14.30
2018-03-09T14:19:56.112Z,14.40
2018-03-09T14:22:29.031Z,14.20
2018-03-09T14:25:00.680Z,14.60
2018-03-09T14:27:43.297Z,14.30
2018-03-09T14:30:31.002Z,14.20
2018-03-09T14:33:02.376Z,14.20
2018-03-09T14:35:34.121Z,14.30
2018-03-09T14:38:12.808Z,14.00
2018-03-09T14:40:46.982Z,14.20
2018-03-09T14:43:23.685Z,14.40
2018-03-09T14:45:56.831Z,13.80
2018-03-09T14:52:01.661Z,13.90
2018-03-09T14:54:35.414Z,14.10
2018-03-09T14:57:32.237Z,14.20
2018-03-09T15:00:17.971Z,14.40
2018-03-09T15:02:49.561Z,14.50
2018-03-09T15:05:20.370Z,14.50
2018-03-09T15:07:54.191Z,14.40
2018-03-09T15:10:55.548Z,14.30
2018-03-09T15:14:13.154Z,14.30
2018-03-09T15:16:53.534Z,14.20
2018-03-09T15:19:26.632Z,14.20
2018-03-09T15:22:06.043Z,14.20
2018-03-09T15:24:42.353Z,14.10
2018-03-09T15:27:15.537Z,14.10
2018-03-09T15:29:49.891Z,14.20
2018-03-09T15:32:21.182Z,14.30
2018-03-09T15:34:57.639Z,14.30
2018-03-09T15:37:31.171Z,14.10
2018-03-09T15:40:08.709Z,14.10
2018-03-09T15:42:41.647Z,13.80
2018-03-09T15:45:12.352Z,13.60
2018-03-09T15:47:43.382Z,13.60
2018-03-09T15:50:14.234Z,13.50
2018-03-09T15:52:45.069Z,13.50
2018-03-09T15:55:15.924Z,13.60
2018-03-09T15:57:47.988Z,13.40
2018-03-09T16:00:18.293Z,13.40
2018-03-09T16:02:49.180Z,13.30
2018-03-09T16:05:19.686Z,13.20
2018-03-09T16:07:50.661Z,13.20
2018-03-09T16:10:29.475Z,13.20
2018-03-09T16:13:01.168Z,13.20
2018-03-09T16:15:44.418Z,13.10
2018-03-09T16:18:17.582Z,13.10
2018-03-09T16:21:21.822Z,13.00
2018-03-09T16:23:54.236Z,13.10
2018-03-09T16:26:25.073Z,13.10
2018-03-09T16:28:56.626Z,13.00
2018-03-09T16:31:26.996Z,13.00
2018-03-09T16:34:01.838Z,12.80
2018-03-09T16:40:05.746Z,12.50
2018-03-09T16:42:49.728Z,12.50
2018-03-09T16:45:21.223Z,12.50
2018-03-09T16:47:58.123Z,12.40
2018-03-09T16:50:34.672Z,12.20
2018-03-09T16:53:19.058Z,12.00
2018-03-09T16:55:51.210Z,11.80
2018-03-09T16:58:21.904Z,11.80
2018-03-09T17:00:52.431Z,11.70
2018-03-09T17:03:22.704Z,11.50
2018-03-09T17:05:53.910Z,11.60
2018-03-09T17:08:24.795Z,11.60
2018-03-09T17:10:56.182Z,11.10
2018-03-09T17:13:26.900Z,11.10
2018-03-09T17:15:57.675Z,10.70
2018-03-09T17:18:29.344Z,10.80
2018-03-09T17:21:00.313Z,10.80
2018-03-09T17:23:30.647Z,10.70
2018-03-09T17:26:17.309Z,10.30
2018-03-09T17:28:48.720Z,10.00
2018-03-09T17:31:19.704Z,10.00
2018-03-09T17:33:50.959Z,10.30
2018-03-09T17:36:22.452Z,10.50
2018-03-09T17:38:54.519Z,10.60
2018-03-09T17:41:36.838Z,10.50
2018-03-09T17:44:07.788Z,10.50
2018-03-09T17:46:39.214Z,10.60
2018-03-09T17:49:11.976Z,10.60
2018-03-09T17:51:50.496Z,10.60
2018-03-09T17:54:21.171Z,10.40
2018-03-09T17:57:02.921Z,10.20
2018-03-09T17:59:36.080Z,10.00
2018-03-09T18:02:11.075Z,9.70
2018-03-09T18:04:46.915Z,9.50
2018-03-09T18:07:20.252Z,9.40
2018-03-09T18:09:53.988Z,9.20
2018-03-09T18:12:30.234Z,9.20
2018-03-09T18:15:03.640Z,9.20
2018-03-09T18:17:41.807Z,9.20
2018-03-09T18:20:22.613Z,8.90
2018-03-09T18:22:55.847Z,8.90
2018-03-09T18:25:31.310Z,8.80
2018-03-09T18:28:04.249Z,8.60
2018-03-09T18:30:36.683Z,8.60
2018-03-09T18:33:07.607Z,8.40
2018-03-09T18:35:38.415Z,8.40
2018-03-09T18:38:09.447Z,8.40
2018-03-09T18:40:40.336Z,8.40
2018-03-09T18:43:11.187Z,8.50
2018-03-09T18:45:46.501Z,8.70
2018-03-09T18:48:20.822Z,8.80
2018-03-09T18:51:02.755Z,8.80
2018-03-09T18:53:40.035Z,8.70
2018-03-09T18:56:19.630Z,8.40
2018-03-09T18:58:51.176Z,8.40
2018-03-09T19:01:21.747Z,8.50
2018-03-09T19:03:52.132Z,8.70
2018-03-09T19:06:23.813Z,8.70
2018-03-09T19:08:56.340Z,8.80
2018-03-09T19:11:31.078Z,8.80
2018-03-09T19:14:03.934Z,8.70
2018-03-09T19:17:13.299Z,8.80
2018-03-09T19:19:51.429Z,8.80
2018-03-09T19:22:22.140Z,8.50
2018-03-09T19:25:32.761Z,8.50
2018-03-09T19:28:27.651Z,8.80
2018-03-09T19:30:59.485Z,8.80
2018-03-09T19:33:35.520Z,8.90
2018-03-09T19:36:06.445Z,8.90
2018-03-09T19:38:37.002Z,9.00
2018-03-09T19:41:07.406Z,9.00
2018-03-09T19:43:49.329Z,9.10
2018-03-09T19:46:27.012Z,9.20
2018-03-09T19:48:58.569Z,9.30
2018-03-09T19:51:31.563Z,9.10
2018-03-09T19:54:03.315Z,9.10
2018-03-09T19:56:34.479Z,9.10
2018-03-09T19:59:05.318Z,9.00
2018-03-09T20:01:35.500Z,8.90
2018-03-09T20:04:07.466Z,8.60
2018-03-09T20:06:38.116Z,8.70
2018-03-09T20:09:09.269Z,8.60
2018-03-09T20:11:40.999Z,8.50
2018-03-09T20:14:12.159Z,8.40
2018-03-09T20:16:44.024Z,8.60
2018-03-09T20:19:16.965Z,8.60
2018-03-09T20:21:48.152Z,8.60
2018-03-09T20:24:21.535Z,8.40
2018-03-09T20:26:52.227Z,8.50
2018-03-09T20:29:24.412Z,8.80
2018-03-09T20:31:56.916Z,8.80
2018-03-09T20:34:27.945Z,8.80
2018-03-09T20:37:12.819Z,8.80
2018-03-09T20:39:44.478Z,8.90
2018-03-09T20:42:16.133Z,8.70
2018-03-09T20:44:47.076Z,8.70
2018-03-09T20:47:18.122Z,8.70
2018-03-09T20:49:49.083Z,8.80
2018-03-09T20:52:20.610Z,8.50
2018-03-09T20:54:50.890Z,8.50
2018-03-09T20:57:22.614Z,8.40
2018-03-09T20:59:54.453Z,8.50
2018-03-09T21:02:26.266Z,8.50
2018-03-09T21:04:56.882Z,8.40
2018-03-09T21:07:28.088Z,8.30
2018-03-09T21:09:58.441Z,8.20
2018-03-09T21:12:28.560Z,8.30
2018-03-09T21:15:00.380Z,8.40
2018-03-09T21:17:31.319Z,8.40
2018-03-09T21:20:02.601Z,8.40
2018-03-09T21:22:33.501Z,8.50
2018-03-09T21:25:04.240Z,8.50
2018-03-09T21:27:36.086Z,8.60
2018-03-09T21:30:07.663Z,8.50
2018-03-09T21:32:39.038Z,8.60
2018-03-09T21:35:11.476Z,8.60
2018-03-09T21:37:42.492Z,8.60
2018-03-09T21:40:14.638Z,8.70
2018-03-09T21:42:47.340Z,8.70
2018-03-09T21:45:17.764Z,8.80
2018-03-09T21:47:49.431Z,8.90
2018-03-09T21:50:20.127Z,8.90
2018-03-09T21:52:51.053Z,8.90
2018-03-09T21:55:23.129Z,8.80
2018-03-09T21:57:54.720Z,8.70
2018-03-09T22:00:28.539Z,8.70
2018-03-09T22:02:59.883Z,8.70
2018-03-09T22:05:30.659Z,8.70
2018-03-09T22:08:01.570Z,8.70
2018-03-09T22:10:32.622Z,8.70
2018-03-09T22:13:03.287Z,8.70
2018-03-09T22:15:34.650Z,8.80
2018-03-09T22:18:05.272Z,8.80
2018-03-09T22:20:35.531Z,8.70
2018-03-09T22:23:06.544Z,8.60
2018-03-09T22:25:37.550Z,8.60
2018-03-09T22:28:09.116Z,8.70
2018-03-09T22:30:39.772Z,8.70
2018-03-09T22:33:10.676Z,8.90
2018-03-09T22:35:42.032Z,8.90
2018-03-09T22:39:16.088Z,8.90
2018-03-09T22:41:47.349Z,8.80
2018-03-09T22:44:19.406Z,8.70
2018-03-09T22:46:50.064Z,8.70
2018-03-09T22:49:20.746Z,8.70
2018-03-09T22:51:51.600Z,8.70
2018-03-09T22:54:22.212Z,8.60
2018-03-09T22:56:52.760Z,8.70
2018-03-09T22:59:24.164Z,8.70
2018-03-09T23:01:54.867Z,8.50
2018-03-09T23:04:25.427Z,8.60
2018-03-09T23:06:56.028Z,8.50
2018-03-09T23:09:34.163Z,8.50
2018-03-09T23:12:07.135Z,8.60
2018-03-09T23:14:47.657Z,8.50
2018-03-09T23:17:18.687Z,8.50
2018-03-09T23:19:49.982Z,8.70
2018-03-09T23:22:20.932Z,8.70
